Time;durP1;ratioP1;P1;durP2;ratioP2;P2;SDS_P1;SDS_P2;PMS_P1;PMS_P2;Temp;Humidity;BMP_temperature;BMP_pressure;BME280_temperature;BME280_humidity;BME280_pressure;Samples;Min_cycle;Max_cycle;Signal;HPM_P1;HPM_P2
2022/10/26 00:02:13;;;;;;;4.55;3.55;;;;;;;10.40;80.17;98930.34;4990736;28;20079;-79
2022/10/26 00:04:39;;;;;;;4.60;3.45;;;;;;;10.26;80.73;98940.56;5007215;28;20056;-79
2022/10/26 00:07:04;;;;;;;5.45;2.90;;;;;;;10.16;80.31;98936.91;4989951;28;20034;-79
2022/10/26 00:09:30;;;;;;;9.57;3.47;;;;;;;10.04;80.80;98936.16;4969643;28;20030;-79
2022/10/26 00:11:55;;;;;;;6.63;3.28;;;;;;;10.12;81.26;98943.78;4991955;28;20069;-79
2022/10/26 00:14:20;;;;;;;3.55;3.28;;;;;;;10.15;80.76;98933.44;4974294;28;20038;-79
2022/10/26 00:16:46;;;;;;;7.82;3.30;;;;;;;10.25;80.50;98938.94;4984483;28;20068;-79
2022/10/26 00:19:11;;;;;;;4.30;3.20;;;;;;;10.28;80.54;98932.31;4993499;28;20099;-79
2022/10/26 00:21:37;;;;;;;3.78;3.30;;;;;;;10.34;79.65;98932.13;5004069;28;20605;-79
2022/10/26 00:24:02;;;;;;;7.65;3.20;;;;;;;10.24;80.23;98926.63;4990668;28;20037;-79
2022/10/26 00:26:27;;;;;;;6.68;3.63;;;;;;;10.35;79.92;98936.41;5004231;28;20524;-78
2022/10/26 00:28:54;;;;;;;4.13;3.17;;;;;;;10.39;79.49;98936.75;5011558;28;20033;-79
2022/10/26 00:31:20;;;;;;;4.47;2.90;;;;;;;10.29;79.84;98928.56;5009550;28;20018;-79
2022/10/26 00:33:45;;;;;;;4.07;3.20;;;;;;;10.32;79.54;98928.09;5007417;28;20034;-79
2022/10/26 00:36:15;;;;;;;4.28;3.47;;;;;;;10.31;80.01;98937.94;5008070;28;20048;-78
2022/10/26 00:38:44;;;;;;;8.20;3.08;;;;;;;10.27;80.29;98934.16;5003551;28;20084;-78
2022/10/26 00:41:26;;;;;;;9.40;3.22;;;;;;;10.38;80.45;98924.44;5006833;28;20080;-79
2022/10/26 00:43:52;;;;;;;6.68;3.25;;;;;;;10.55;79.93;98935.88;4999646;28;20130;-79
2022/10/26 00:46:32;;;;;;;3.75;3.38;;;;;;;10.45;80.12;98928.56;4990826;28;20143;-82
2022/10/26 00:49:19;;;;;;;4.18;3.10;;;;;;;10.51;80.17;98937.44;4976150;28;20046;-80
2022/10/26 00:51:50;;;;;;;5.00;3.80;;;;;;;10.58;80.24;98927.41;5021419;28;20041;-79
2022/10/26 00:54:18;;;;;;;5.65;3.20;;;;;;;10.46;80.55;98930.16;5014412;28;20977;-80
2022/10/26 00:56:49;;;;;;;8.95;3.40;;;;;;;10.36;81.36;98923.88;4991876;28;20042;-81
2022/10/26 00:59:16;;;;;;;7.88;3.33;;;;;;;10.46;80.31;98932.03;5003435;28;20700;-81
2022/10/26 01:01:45;;;;;;;6.07;3.83;;;;;;;10.33;80.48;98925.16;5005599;28;20037;-81
2022/10/26 01:04:12;;;;;;;5.40;3.58;;;;;;;10.09;81.78;98936.25;5012558;28;20022;-82
2022/10/26 01:06:38;;;;;;;6.00;3.78;;;;;;;10.34;81.19;98925.97;5013656;28;20034;-82
2022/10/26 01:09:04;;;;;;;6.75;3.63;;;;;;;10.30;80.94;98916.84;4982221;28;20117;-80
2022/10/26 01:11:30;;;;;;;6.43;3.53;;;;;;;10.35;80.86;98928.41;5016691;28;20025;-80
2022/10/26 01:13:58;;;;;;;5.40;3.72;;;;;;;10.40;80.96;98931.16;5012421;28;20061;-80
2022/10/26 01:16:42;;;;;;;3.97;3.63;;;;;;;10.29;81.64;98923.22;4986827;28;20041;-80
2022/10/26 01:19:19;;;;;;;6.68;3.65;;;;;;;10.26;81.40;98935.22;5003990;28;20025;-80
2022/10/26 01:22:12;;;;;;;6.15;3.30;;;;;;;10.11;82.23;98916.28;4990886;28;20121;-79
2022/10/26 01:24:56;;;;;;;7.05;3.67;;;;;;;10.26;82.06;98919.22;4996675;28;20023;-79
2022/10/26 01:27:47;;;;;;;4.78;3.75;;;;;;;10.35;81.70;98915.06;4993330;28;20030;-79
2022/10/26 01:30:34;;;;;;;6.63;3.72;;;;;;;10.42;81.30;98918.38;5012922;28;20052;-79
2022/10/26 01:33:29;;;;;;;8.23;4.47;;;;;;;10.44;81.65;98907.47;5002742;28;20026;-79
2022/10/26 01:36:26;;;;;;;4.78;3.42;;;;;;;10.30;81.59;98908.84;5013518;28;20025;-79
2022/10/26 01:38:59;;;;;;;9.00;3.45;;;;;;;10.26;81.59;98907.72;5007575;28;20112;-77
2022/10/26 01:41:30;;;;;;;10.93;4.13;;;;;;;10.29;82.20;98905.38;5009557;28;20026;-77
2022/10/26 01:44:03;;;;;;;7.65;4.25;;;;;;;10.23;81.89;98890.34;5012623;28;20022;-79
2022/10/26 01:46:35;;;;;;;6.00;3.85;;;;;;;10.21;81.91;98895.13;5005796;28;20038;-78
2022/10/26 01:49:06;;;;;;;9.98;3.75;;;;;;;10.24;81.68;98897.28;4994217;28;20045;-79
2022/10/26 01:51:34;;;;;;;7.60;4.78;;;;;;;10.17;82.35;98888.66;5006840;28;20060;-78
2022/10/26 01:53:59;;;;;;;11.20;4.18;;;;;;;10.13;82.87;98886.75;5005182;28;20034;-79
2022/10/26 01:56:27;;;;;;;6.35;4.00;;;;;;;10.16;82.52;98880.91;5007130;28;20079;-79
2022/10/26 01:59:11;;;;;;;9.52;4.25;;;;;;;9.96;83.21;98884.03;5007492;28;20034;-78
2022/10/26 02:02:06;;;;;;;6.63;3.28;;;;;;;10.18;82.50;98886.78;5002417;28;20399;-79
2022/10/26 02:05:04;;;;;;;9.82;4.43;;;;;;;10.25;82.53;98890.91;5008999;28;20097;-80
2022/10/26 02:07:44;;;;;;;8.70;4.32;;;;;;;10.20;82.13;98888.16;5003428;28;20045;-79
2022/10/26 02:10:27;;;;;;;4.82;3.28;;;;;;;10.19;82.59;98883.09;5007491;28;20431;-79
2022/10/26 02:13:11;;;;;;;6.78;3.35;;;;;;;10.11;82.54;98880.84;5006077;28;20219;-80
2022/10/26 02:15:47;;;;;;;4.10;3.42;;;;;;;10.12;82.80;98877.91;4991040;28;20064;-79
2022/10/26 02:18:35;;;;;;;6.88;3.88;;;;;;;10.10;82.81;98882.66;4990500;28;20128;-80
2022/10/26 02:21:08;;;;;;;9.52;3.70;;;;;;;10.09;83.43;98877.59;5003474;28;20034;-80
2022/10/26 02:23:37;;;;;;;9.55;4.53;;;;;;;9.99;82.78;98862.22;5008575;28;20471;-80
2022/10/26 02:26:07;;;;;;;8.05;4.30;;;;;;;9.99;83.09;98862.22;5010747;28;20034;-79
2022/10/26 02:28:37;;;;;;;7.32;3.45;;;;;;;10.02;83.51;98860.94;5006558;28;20033;-80
2022/10/26 02:31:05;;;;;;;5.10;4.50;;;;;;;9.95;83.32;98862.97;5014104;28;20030;-80
2022/10/26 02:33:36;;;;;;;7.20;4.35;;;;;;;9.97;84.08;98859.00;4993903;28;20039;-80
2022/10/26 02:36:06;;;;;;;6.05;4.22;;;;;;;9.86;83.70;98848.41;4993386;28;20026;-81
2022/10/26 02:38:34;;;;;;;8.10;4.95;;;;;;;9.93;84.28;98854.41;4998445;28;20029;-81
2022/10/26 02:41:01;;;;;;;8.13;4.63;;;;;;;9.95;84.23;98853.09;4997489;28;20030;-80
2022/10/26 02:43:29;;;;;;;5.82;4.53;;;;;;;9.91;84.18;98856.50;5006712;28;20034;-79
2022/10/26 02:46:14;;;;;;;8.38;4.65;;;;;;;9.86;84.71;98854.56;5007517;28;20037;-79
2022/10/26 02:48:39;;;;;;;7.45;4.47;;;;;;;9.86;83.92;98851.09;5012007;28;20034;-80
2022/10/26 02:51:19;;;;;;;7.18;5.07;;;;;;;9.85;84.14;98846.81;5007731;28;20025;-81
2022/10/26 02:53:50;;;;;;;5.97;4.68;;;;;;;9.82;83.66;98858.78;4994341;28;20156;-81
2022/10/26 02:56:43;;;;;;;7.32;4.25;;;;;;;9.98;83.68;98854.47;4991441;28;20034;-82
2022/10/26 02:59:12;;;;;;;9.00;4.63;;;;;;;9.94;83.45;98851.47;5004280;28;20640;-83
2022/10/26 03:01:38;;;;;;;6.03;3.60;;;;;;;10.07;83.04;98845.81;4997917;28;20022;-81
2022/10/26 03:04:04;;;;;;;6.63;4.25;;;;;;;10.00;82.88;98853.19;5012919;28;20096;-81
2022/10/26 03:06:29;;;;;;;12.30;4.50;;;;;;;9.82;82.97;98835.59;5006709;28;20779;-80
2022/10/26 03:08:55;;;;;;;5.07;4.50;;;;;;;9.82;83.10;98837.44;4991815;28;20037;-80
2022/10/26 03:11:20;;;;;;;8.10;4.10;;;;;;;9.78;83.67;98853.09;5012495;28;20062;-80
2022/10/26 03:13:45;;;;;;;5.63;4.40;;;;;;;9.75;83.64;98842.94;5016841;28;20037;-79
2022/10/26 03:16:11;;;;;;;6.07;4.30;;;;;;;9.73;83.29;98847.72;5013528;28;20088;-81
2022/10/26 03:18:36;;;;;;;7.55;4.30;;;;;;;9.74;83.29;98846.66;5018601;28;20030;-80
2022/10/26 03:21:02;;;;;;;9.75;4.75;;;;;;;9.75;83.25;98847.47;5010188;28;20033;-80
2022/10/26 03:23:27;;;;;;;9.45;5.20;;;;;;;9.73;83.21;98841.56;5010182;28;20034;-80
2022/10/26 03:25:57;;;;;;;8.93;4.40;;;;;;;9.80;83.65;98852.88;5006448;28;20037;-80
2022/10/26 03:28:22;;;;;;;6.97;4.13;;;;;;;9.78;82.81;98837.09;5010809;28;20993;-80
2022/10/26 03:30:48;;;;;;;6.93;4.70;;;;;;;9.75;83.24;98837.63;5005423;28;20034;-79
2022/10/26 03:33:13;;;;;;;7.05;4.43;;;;;;;9.73;83.10;98841.56;5011710;28;20042;-80
2022/10/26 03:35:38;;;;;;;7.68;4.93;;;;;;;9.70;83.39;98845.53;5019135;28;20065;-81
2022/10/26 03:38:04;;;;;;;5.65;4.50;;;;;;;9.73;83.38;98842.38;5003457;28;20510;-79
2022/10/26 03:40:29;;;;;;;7.63;4.75;;;;;;;9.84;82.44;98840.66;5013131;28;20037;-80
2022/10/26 03:42:55;;;;;;;9.07;4.28;;;;;;;9.80;83.01;98839.53;5005992;28;20042;-80
2022/10/26 03:45:20;;;;;;;9.77;4.22;;;;;;;9.85;82.74;98836.94;5020462;28;20065;-80
2022/10/26 03:47:47;;;;;;;7.28;4.45;;;;;;;9.78;83.30;98842.44;5004530;28;20030;-80
2022/10/26 03:50:17;;;;;;;8.50;4.63;;;;;;;9.79;82.56;98841.41;5010424;28;20026;-82
2022/10/26 03:52:43;;;;;;;8.98;4.97;;;;;;;9.79;83.19;98843.25;5014217;28;20131;-81
2022/10/26 03:55:09;;;;;;;4.57;4.18;;;;;;;9.74;83.62;98841.31;5012422;28;20062;-82
2022/10/26 03:57:39;;;;;;;7.57;4.57;;;;;;;9.66;83.45;98848.91;4998163;28;20445;-80
2022/10/26 04:00:05;;;;;;;6.72;4.78;;;;;;;9.69;83.51;98840.44;5005648;28;20071;-80
2022/10/26 04:02:30;;;;;;;9.57;5.03;;;;;;;9.68;84.27;98846.81;4997897;28;20068;-81
2022/10/26 04:04:56;;;;;;;6.72;4.65;;;;;;;9.68;84.23;98849.47;4990738;28;20108;-80
2022/10/26 04:07:22;;;;;;;6.43;3.90;;;;;;;9.69;84.08;98838.59;5004803;28;20045;-81
2022/10/26 04:09:47;;;;;;;6.13;4.22;;;;;;;9.65;84.82;98826.78;4993039;28;20037;-79
2022/10/26 04:12:12;;;;;;;10.27;4.93;;;;;;;9.77;83.55;98840.84;4976821;28;20026;-79
2022/10/26 04:14:38;;;;;;;9.45;4.25;;;;;;;9.83;83.64;98847.84;5010849;28;20056;-79
2022/10/26 04:17:03;;;;;;;8.63;4.40;;;;;;;9.77;84.08;98846.16;5008767;28;20030;-80
2022/10/26 04:19:28;;;;;;;6.18;5.05;;;;;;;9.74;84.00;98846.66;4990186;28;20034;-80
2022/10/26 04:21:53;;;;;;;9.25;4.57;;;;;;;9.81;83.60;98841.16;4992290;28;20064;-80
2022/10/26 04:24:19;;;;;;;8.27;4.45;;;;;;;9.78;83.85;98839.78;4988886;28;20386;-80
2022/10/26 04:26:44;;;;;;;8.27;4.35;;;;;;;9.86;83.11;98841.22;4989679;28;20472;-80
2022/10/26 04:29:10;;;;;;;7.25;5.03;;;;;;;9.86;82.70;98838.56;4990748;28;20502;-80
2022/10/26 04:31:35;;;;;;;5.65;4.60;;;;;;;9.86;83.23;98853.75;5008152;28;20360;-79
2022/10/26 04:34:02;;;;;;;8.90;4.85;;;;;;;9.89;83.21;98846.09;5004497;28;20148;-80
2022/10/26 04:36:29;;;;;;;10.27;4.75;;;;;;;9.70;83.50;98842.84;5006379;28;20410;-78
2022/10/26 04:38:54;;;;;;;7.03;4.32;;;;;;;9.69;84.15;98837.78;5005173;28;20407;-76
2022/10/26 04:41:20;;;;;;;9.10;4.85;;;;;;;9.67;84.22;98838.03;5003447;28;20045;-77
2022/10/26 04:43:45;;;;;;;6.10;4.55;;;;;;;9.68;84.18;98831.63;5002664;28;20069;-76
2022/10/26 04:46:12;;;;;;;9.25;4.53;;;;;;;9.07;86.51;98832.47;5002262;28;20120;-76
2022/10/26 04:48:38;;;;;;;7.35;4.60;;;;;;;9.19;86.88;98827.09;5006884;28;20040;-75
2022/10/26 04:51:04;;;;;;;5.57;4.40;;;;;;;9.63;85.13;98833.41;5004036;28;20501;-76
2022/10/26 04:53:29;;;;;;;9.13;5.40;;;;;;;9.68;84.07;98836.97;5006516;28;20030;-77
2022/10/26 04:55:59;;;;;;;6.50;3.95;;;;;;;9.71;83.84;98825.00;5004521;28;20065;-75
2022/10/26 04:58:25;;;;;;;5.60;3.80;;;;;;;9.74;84.25;98824.53;5000416;28;20022;-76
2022/10/26 05:00:51;;;;;;;5.00;4.15;;;;;;;9.81;83.97;98833.16;4991107;28;20478;-77
2022/10/26 05:03:16;;;;;;;8.25;4.97;;;;;;;9.77;83.91;98826.69;4993239;28;20038;-78
2022/10/26 05:05:41;;;;;;;7.68;4.47;;;;;;;9.75;84.14;98828.81;5008771;28;20423;-78
2022/10/26 05:08:07;;;;;;;8.88;4.45;;;;;;;9.76;84.16;98825.09;5003361;28;20033;-80
2022/10/26 05:10:33;;;;;;;10.48;4.47;;;;;;;9.74;84.66;98830.66;5007229;28;20056;-78
2022/10/26 05:12:59;;;;;;;7.45;4.35;;;;;;;9.82;84.30;98832.13;5006429;28;20026;-80
2022/10/26 05:15:25;;;;;;;7.90;4.70;;;;;;;9.76;84.65;98828.53;4985934;28;20036;-80
2022/10/26 05:18:01;;;;;;;4.90;3.83;;;;;;;9.83;84.76;98833.72;5004065;28;20033;-80
2022/10/26 05:20:29;;;;;;;5.68;3.88;;;;;;;9.83;85.26;98833.72;4998911;28;20372;-79
2022/10/26 05:22:56;;;;;;;5.93;3.90;;;;;;;9.90;85.14;98833.53;4999811;28;20031;-79
2022/10/26 05:25:21;;;;;;;7.43;3.92;;;;;;;9.90;85.33;98834.34;5000542;28;20542;-79
2022/10/26 05:27:47;;;;;;;7.75;4.22;;;;;;;9.87;85.12;98826.06;5003291;28;20038;-79
2022/10/26 05:30:12;;;;;;;8.60;4.15;;;;;;;10.02;84.50;98827.09;4987210;28;20042;-79
2022/10/26 05:32:37;;;;;;;8.77;3.42;;;;;;;9.95;85.43;98821.13;5001623;28;20042;-79
2022/10/26 05:35:03;;;;;;;4.22;3.22;;;;;;;10.04;84.40;98840.97;5007027;28;20120;-79
2022/10/26 05:37:29;;;;;;;4.75;3.72;;;;;;;9.86;85.31;98827.91;5004794;28;20057;-79
2022/10/26 05:39:54;;;;;;;5.32;3.90;;;;;;;10.09;84.94;98837.59;5001834;28;20057;-79
2022/10/26 05:42:19;;;;;;;5.93;3.65;;;;;;;10.10;84.36;98840.00;5004293;28;20030;-79
2022/10/26 05:44:45;;;;;;;4.68;3.85;;;;;;;9.69;86.10;98827.94;5006173;28;20026;-79
2022/10/26 05:47:11;;;;;;;9.50;3.60;;;;;;;9.96;85.61;98830.72;5006012;28;20157;-79
2022/10/26 05:49:36;;;;;;;7.18;3.75;;;;;;;10.01;85.12;98836.13;5010652;28;20026;-80
2022/10/26 05:52:02;;;;;;;6.30;3.72;;;;;;;10.06;85.26;98838.06;5009799;28;20562;-79
2022/10/26 05:54:27;;;;;;;7.30;3.72;;;;;;;10.03;85.30;98850.03;4994756;28;20442;-79
2022/10/26 05:56:53;;;;;;;6.05;3.75;;;;;;;10.04;84.97;98843.66;5009951;28;20058;-79
2022/10/26 05:59:18;;;;;;;6.80;3.60;;;;;;;10.06;85.35;98843.38;5006367;28;20484;-79
2022/10/26 06:01:47;;;;;;;6.05;3.88;;;;;;;10.10;84.93;98842.66;4995079;28;20037;-79
2022/10/26 06:04:37;;;;;;;6.38;4.13;;;;;;;10.12;84.97;98847.78;5007952;28;20398;-79
2022/10/26 06:07:09;;;;;;;6.90;3.90;;;;;;;10.08;84.77;98839.44;4993724;28;20517;-79
2022/10/26 06:09:36;;;;;;;8.55;4.13;;;;;;;10.02;84.92;98843.09;5015503;28;20084;-79
2022/10/26 06:12:02;;;;;;;8.00;3.83;;;;;;;10.09;85.12;98851.69;4992826;28;20533;-80
2022/10/26 06:14:28;;;;;;;6.82;3.67;;;;;;;10.09;85.27;98849.03;5007810;28;20030;-79
2022/10/26 06:17:14;;;;;;;8.00;4.00;;;;;;;10.10;85.59;98844.50;5014945;28;20030;-80
2022/10/26 06:19:46;;;;;;;5.53;3.50;;;;;;;10.13;85.33;98847.53;4997193;28;20021;-79
2022/10/26 06:22:34;;;;;;;5.10;3.47;;;;;;;10.10;85.58;98850.66;5009119;28;20027;-79
2022/10/26 06:25:21;;;;;;;8.80;4.50;;;;;;;10.08;85.76;98854.63;4992788;28;20100;-79
2022/10/26 06:28:00;;;;;;;6.60;4.00;;;;;;;10.17;85.99;98859.34;4993969;28;20527;-79
2022/10/26 06:30:26;;;;;;;7.43;3.85;;;;;;;10.10;85.56;98860.50;5011332;28;20049;-79
2022/10/26 06:32:54;;;;;;;6.55;3.72;;;;;;;10.06;85.85;98852.22;4975668;28;20930;-79
2022/10/26 06:35:32;;;;;;;5.03;3.80;;;;;;;10.13;85.71;98863.53;4988570;28;20052;-79
2022/10/26 06:38:01;;;;;;;8.20;3.72;;;;;;;10.07;85.63;98861.81;5012332;28;20399;-81
2022/10/26 06:40:31;;;;;;;5.00;3.25;;;;;;;10.20;85.83;98863.38;5015982;28;20029;-79
2022/10/26 06:42:57;;;;;;;4.55;3.97;;;;;;;10.14;86.11;98865.16;5010140;28;20026;-79
2022/10/26 06:45:23;;;;;;;8.50;4.10;;;;;;;10.14;86.04;98857.16;5013615;28;20034;-79
2022/10/26 06:47:56;;;;;;;5.82;3.97;;;;;;;10.22;86.17;98863.94;4996656;28;20030;-79
2022/10/26 06:50:39;;;;;;;9.52;4.38;;;;;;;10.21;85.79;98864.97;5011369;28;20029;-79
2022/10/26 06:53:25;;;;;;;7.57;3.40;;;;;;;10.30;85.80;98869.66;5014758;28;20025;-79
2022/10/26 06:55:51;;;;;;;10.25;3.90;;;;;;;10.25;85.29;98874.91;5011312;28;20034;-81
2022/10/26 06:58:19;;;;;;;7.22;4.22;;;;;;;10.32;85.33;98872.88;5013730;28;20032;-80
2022/10/26 07:00:47;;;;;;;5.45;4.20;;;;;;;10.38;85.63;98871.88;5016183;28;20033;-81
2022/10/26 07:03:13;;;;;;;6.25;3.83;;;;;;;10.40;85.91;98871.63;5015780;28;20030;-80
2022/10/26 07:05:38;;;;;;;7.30;4.50;;;;;;;10.40;85.26;98880.44;5008292;28;20037;-81
2022/10/26 07:08:04;;;;;;;8.43;4.53;;;;;;;10.44;85.22;98880.78;5011898;28;20026;-80
2022/10/26 07:10:29;;;;;;;9.38;5.28;;;;;;;10.33;85.83;98882.47;5013665;28;20022;-81
2022/10/26 07:12:55;;;;;;;8.57;4.60;;;;;;;10.43;85.91;98881.81;5016748;28;20055;-81
2022/10/26 07:15:20;;;;;;;5.95;4.63;;;;;;;10.47;85.70;98898.94;5012351;28;20033;-80
2022/10/26 07:17:47;;;;;;;7.28;5.07;;;;;;;10.35;85.83;98900.94;4998310;28;20582;-81
2022/10/26 07:20:14;;;;;;;9.57;4.53;;;;;;;10.42;85.85;98898.88;5008772;28;20038;-81
2022/10/26 07:22:41;;;;;;;10.57;4.90;;;;;;;10.33;85.88;98887.03;4996653;28;20030;-79
2022/10/26 07:25:08;;;;;;;8.27;5.07;;;;;;;10.40;85.96;98891.13;4997587;28;20026;-80
2022/10/26 07:27:33;;;;;;;7.65;4.20;;;;;;;10.37;86.68;98885.50;5003932;28;20029;-82
2022/10/26 07:29:59;;;;;;;7.50;4.82;;;;;;;10.34;86.31;98884.13;4996472;28;20030;-80
2022/10/26 07:32:24;;;;;;;10.43;4.38;;;;;;;10.56;86.09;98889.47;5010567;28;20044;-82
2022/10/26 07:34:49;;;;;;;5.68;3.95;;;;;;;10.42;86.30;98890.88;4995281;28;20048;-81
2022/10/26 07:37:15;;;;;;;9.75;4.13;;;;;;;10.65;85.70;98905.88;4996087;28;20034;-82
2022/10/26 07:39:40;;;;;;;8.88;4.47;;;;;;;10.61;85.91;98894.88;4997546;28;20112;-81
2022/10/26 07:42:06;;;;;;;8.77;4.25;;;;;;;10.75;85.17;98895.31;5008982;28;20092;-81
2022/10/26 07:44:32;;;;;;;5.13;3.63;;;;;;;10.72;85.93;98907.31;4996953;28;20445;-81
2022/10/26 07:46:57;;;;;;;8.27;4.20;;;;;;;10.65;86.31;98904.00;4992202;28;20026;-82
2022/10/26 07:49:22;;;;;;;9.65;4.07;;;;;;;10.61;86.33;98897.56;4998232;28;20065;-81
2022/10/26 07:51:48;;;;;;;9.80;4.38;;;;;;;10.69;86.38;98912.31;5013564;28;20034;-80
2022/10/26 07:54:14;;;;;;;7.43;4.65;;;;;;;10.56;88.68;98905.50;4994460;28;20399;-81
2022/10/26 07:56:39;;;;;;;7.57;3.50;;;;;;;10.68;87.05;98900.03;5012516;28;20061;-81
2022/10/26 07:59:04;;;;;;;9.00;5.18;;;;;;;10.53;90.39;98895.28;4993589;28;20037;-80
2022/10/26 08:01:30;;;;;;;7.55;4.78;;;;;;;10.41;93.16;98906.09;5017070;28;20033;-81
2022/10/26 08:03:55;;;;;;;7.18;4.07;;;;;;;10.71;88.28;98899.53;5008717;28;20032;-80
2022/10/26 08:06:21;;;;;;;6.38;4.05;;;;;;;10.77;87.87;98895.91;5008616;28;20053;-80
2022/10/26 08:08:47;;;;;;;9.23;4.22;;;;;;;11.00;86.31;98900.97;4996220;28;20034;-83
2022/10/26 08:11:13;;;;;;;8.23;3.90;;;;;;;11.14;85.96;98904.84;5020710;28;20041;-82
2022/10/26 08:13:39;;;;;;;5.40;3.30;;;;;;;11.25;85.43;98894.03;5010449;28;20056;-81
2022/10/26 08:16:05;;;;;;;7.13;3.45;;;;;;;11.29;85.21;98907.72;5014731;28;20038;-80
2022/10/26 08:18:31;;;;;;;7.32;4.22;;;;;;;11.09;87.72;98920.84;5015749;28;20045;-81
2022/10/26 08:21:02;;;;;;;7.63;4.00;;;;;;;11.41;85.21;98920.91;5011530;28;20042;-81
2022/10/26 08:23:27;;;;;;;9.27;4.20;;;;;;;11.29;85.59;98918.41;5015181;28;20030;-83
2022/10/26 08:25:58;;;;;;;10.25;3.47;;;;;;;11.30;85.73;98925.34;5010253;28;20032;-80
2022/10/26 08:28:24;;;;;;;9.38;4.80;;;;;;;11.25;85.88;98918.06;5018592;28;20387;-81
2022/10/26 08:30:49;;;;;;;7.10;3.72;;;;;;;11.33;85.82;98916.84;4997213;28;20034;-80
2022/10/26 08:33:14;;;;;;;10.32;3.58;;;;;;;11.56;85.16;98921.88;5007319;28;20372;-82
2022/10/26 08:35:40;;;;;;;6.88;3.72;;;;;;;11.52;85.71;98923.44;5008485;28;20048;-82
2022/10/26 08:38:05;;;;;;;5.30;3.47;;;;;;;11.57;85.22;98912.81;5010145;28;20041;-81
2022/10/26 08:40:57;;;;;;;5.97;3.65;;;;;;;11.61;85.31;98911.25;5009547;28;20029;-82
2022/10/26 08:46:38;;;;;;;10.98;5.05;;;;;;;11.68;85.01;98909.19;5004183;28;20045;-83
2022/10/26 08:49:27;;;;;;;4.57;3.60;;;;;;;11.51;86.73;98915.69;5010744;28;20094;-81
2022/10/26 08:51:58;;;;;;;9.38;4.07;;;;;;;11.57;85.66;98912.81;5012689;28;20034;-82
2022/10/26 08:54:27;;;;;;;8.15;3.30;;;;;;;11.78;84.12;98906.59;5013479;28;20069;-81
2022/10/26 08:56:57;;;;;;;5.75;4.22;;;;;;;11.62;85.08;98899.47;5008991;28;20100;-81
2022/10/26 08:59:35;;;;;;;8.80;4.50;;;;;;;11.56;86.09;98907.69;5009735;28;20026;-82
2022/10/26 09:02:01;;;;;;;8.52;4.60;;;;;;;11.54;87.69;98907.13;5011336;28;20026;-82
2022/10/26 09:04:28;;;;;;;12.35;7.30;;;;;;;11.52;88.40;98904.72;5013464;28;20026;-81
2022/10/26 09:07:14;;;;;;;13.20;4.90;;;;;;;11.63;85.14;98893.06;5012457;28;20022;-84
2022/10/26 09:10:05;;;;;;;8.30;4.50;;;;;;;11.85;85.01;98906.41;5009892;28;20038;-82
2022/10/26 09:12:52;;;;;;;8.35;3.75;;;;;;;12.00;84.70;98909.19;4984455;28;20061;-80
2022/10/26 09:15:23;;;;;;;;;;;;;;;11.98;85.17;98897.94;5005242;28;20057;-80
2022/10/26 09:18:16;;;;;;;12.38;5.80;;;;;;;11.90;86.07;98901.88;5019625;28;19948;-82
2022/10/26 09:21:07;;;;;;;7.43;4.38;;;;;;;11.95;84.93;98893.91;4982831;28;20037;-79
2022/10/26 09:23:56;;;;;;;9.10;5.18;;;;;;;11.99;85.10;98889.66;5001996;28;20057;-81
2022/10/26 09:26:38;;;;;;;7.18;4.20;;;;;;;11.88;86.40;98895.19;4990560;28;20312;-80
2022/10/26 09:29:08;;;;;;;8.95;4.65;;;;;;;12.06;85.02;98907.38;5005877;28;20056;-81
2022/10/26 09:31:43;;;;;;;11.43;4.80;;;;;;;11.98;85.67;98909.47;5008580;28;20080;-81
2022/10/26 09:34:19;;;;;;;6.78;4.07;;;;;;;11.95;85.56;98914.50;5005992;28;20450;-81
2022/10/26 09:36:44;;;;;;;8.27;4.75;;;;;;;11.91;86.39;98910.72;5004724;28;20057;-81
2022/10/26 09:39:40;;;;;;;12.18;4.15;;;;;;;12.00;86.02;98914.53;4967062;28;20157;-81
2022/10/26 09:42:37;;;;;;;11.13;4.32;;;;;;;12.00;86.72;98920.69;4994328;28;20042;-79
2022/10/26 09:45:26;;;;;;;13.73;4.35;;;;;;;12.01;86.29;98926.88;5002164;28;20018;-80
2022/10/26 09:47:55;;;;;;;12.65;4.20;;;;;;;12.13;86.08;98922.13;5004390;28;20057;-81
2022/10/26 09:50:39;;;;;;;10.23;3.33;;;;;;;12.06;86.48;98915.41;5003921;28;20109;-79
2022/10/26 09:53:04;;;;;;;10.60;4.00;;;;;;;11.96;87.54;98914.25;4981641;28;20231;-80
2022/10/26 09:55:32;;;;;;;7.38;4.13;;;;;;;12.04;87.16;98911.09;5003108;28;20526;-80
2022/10/26 09:58:02;;;;;;;9.48;3.60;;;;;;;12.09;86.24;98921.03;5006680;28;20042;-80
2022/10/26 10:00:28;;;;;;;7.78;3.55;;;;;;;12.21;85.89;98927.00;5006932;28;20026;-81
2022/10/26 10:02:55;;;;;;;6.40;3.47;;;;;;;12.35;85.18;98927.38;5013959;28;20047;-81
2022/10/26 10:05:32;;;;;;;8.05;3.85;;;;;;;12.27;85.71;98927.84;5003304;28;20032;-81
2022/10/26 10:08:26;;;;;;;10.05;4.03;;;;;;;12.17;87.73;98935.78;4982220;28;20037;-81
2022/10/26 10:10:58;;;;;;;7.50;3.40;;;;;;;12.23;86.49;98926.75;4996699;28;20021;-81
2022/10/26 10:13:26;;;;;;;4.85;3.35;;;;;;;12.28;86.27;98932.13;5008263;28;20534;-80
2022/10/26 10:16:19;;;;;;;13.75;4.18;;;;;;;12.46;86.04;98934.41;5002293;28;20030;-80
2022/10/26 10:18:55;;;;;;;10.73;3.70;;;;;;;12.29;87.48;98941.78;5003801;28;20033;-79
2022/10/26 10:21:34;;;;;;;10.65;3.55;;;;;;;12.37;88.41;98952.81;5009127;28;20088;-81
2022/10/26 10:24:00;;;;;;;5.60;3.20;;;;;;;12.62;85.67;98957.53;5006092;28;20040;-81
2022/10/26 10:26:25;;;;;;;4.95;3.08;;;;;;;12.66;84.70;98943.38;4986334;28;20038;-80
2022/10/26 10:29:02;;;;;;;4.97;3.42;;;;;;;12.62;86.55;98949.50;5008542;28;20119;-79
2022/10/26 10:31:32;;;;;;;6.10;2.90;;;;;;;12.75;85.24;98947.16;5009385;28;20029;-80
2022/10/26 10:33:58;;;;;;;9.88;3.67;;;;;;;12.78;84.72;98940.47;4994466;28;20022;-81
2022/10/26 10:36:28;;;;;;;8.68;3.15;;;;;;;12.69;85.64;98948.19;4991316;28;20109;-80
2022/10/26 10:38:54;;;;;;;9.18;3.28;;;;;;;12.73;85.83;98954.63;4986005;28;20041;-79
2022/10/26 10:41:35;;;;;;;9.32;3.45;;;;;;;12.86;84.76;98957.94;5014104;28;20033;-81
2022/10/26 10:44:26;;;;;;;4.15;2.60;;;;;;;12.81;85.47;98948.00;4994434;28;20123;-80
2022/10/26 10:47:00;;;;;;;7.32;2.92;;;;;;;12.80;85.78;98947.19;5015728;28;20026;-81
2022/10/26 10:49:27;;;;;;;7.20;3.35;;;;;;;12.66;86.53;98940.69;5007430;28;20030;-81
2022/10/26 10:51:54;;;;;;;8.02;3.10;;;;;;;12.65;87.20;98947.09;5011192;28;20040;-81
2022/10/26 10:54:30;;;;;;;5.90;3.20;;;;;;;12.83;85.64;98948.53;4994368;28;20036;-82
2022/10/26 10:57:15;;;;;;;9.63;3.60;;;;;;;12.91;86.06;98941.91;5007606;28;20380;-80
2022/10/26 10:59:49;;;;;;;7.38;3.22;;;;;;;12.99;86.49;98938.72;5001720;28;20038;-80
2022/10/26 11:02:24;;;;;;;7.35;2.60;;;;;;;13.15;85.23;98943.88;5010248;28;20034;-81
2022/10/26 11:05:03;;;;;;;7.10;3.35;;;;;;;13.22;85.46;98939.09;4996065;28;20386;-81
2022/10/26 11:07:32;;;;;;;6.45;2.90;;;;;;;13.15;85.17;98927.81;5014422;28;20041;-81
2022/10/26 11:10:02;;;;;;;4.75;2.75;;;;;;;13.26;84.68;98942.84;5011510;28;20122;-81
2022/10/26 11:12:32;;;;;;;4.47;2.83;;;;;;;13.25;84.81;98933.22;4991399;28;20037;-81
2022/10/26 11:15:07;;;;;;;9.02;3.10;;;;;;;13.24;84.67;98944.19;5010153;28;20471;-78
2022/10/26 11:17:59;;;;;;;4.75;3.00;;;;;;;13.33;84.05;98946.09;4999041;28;20607;-78
2022/10/26 11:20:27;;;;;;;4.97;3.03;;;;;;;13.36;83.96;98945.59;4986198;28;20045;-79
2022/10/26 11:23:19;;;;;;;7.47;3.80;;;;;;;13.41;83.76;98945.59;5005301;28;20368;-79
2022/10/26 11:25:48;;;;;;;9.07;4.10;;;;;;;13.44;83.60;98960.34;4994694;28;20076;-79
2022/10/26 11:28:38;;;;;;;8.57;3.60;;;;;;;13.32;84.65;98955.19;5009455;28;20108;-78
2022/10/26 11:31:10;;;;;;;7.15;3.45;;;;;;;13.38;84.53;98951.50;5002080;28;20038;-80
2022/10/26 11:33:41;;;;;;;6.00;3.78;;;;;;;13.37;84.93;98955.22;5007823;28;20457;-79
2022/10/26 11:36:16;;;;;;;11.77;4.80;;;;;;;13.44;85.25;98958.47;4985990;28;20398;-78
2022/10/26 11:39:03;;;;;;;5.90;3.10;;;;;;;13.57;84.24;98950.97;4997759;28;20033;-78
2022/10/26 11:41:41;;;;;;;7.82;3.03;;;;;;;13.64;83.47;98952.34;5012788;28;20088;-78
2022/10/26 11:44:21;;;;;;;8.25;3.53;;;;;;;13.70;83.78;98956.66;5010116;28;20112;-79
2022/10/26 11:46:52;;;;;;;6.38;3.60;;;;;;;13.73;83.42;98958.00;5006054;28;20033;-79
2022/10/26 11:50:05;;;;;;;8.25;4.38;;;;;;;13.83;82.85;98963.38;4994173;28;20065;-79
2022/10/26 11:52:43;;;;;;;5.90;3.70;;;;;;;13.83;82.82;98960.69;4929537;29;20045;-79
2022/10/26 11:55:10;;;;;;;6.03;3.42;;;;;;;13.88;83.30;98966.88;4934414;29;20118;-78
2022/10/26 11:57:36;;;;;;;9.35;3.10;;;;;;;14.05;82.85;98959.38;4975974;28;21710;-81